sensor_id;sensor_type;location;lat;lon;timestamp;P1;durP1;ratioP1;P2;durP2;ratioP2
7412;SDS011;3748;48.136;11.538;2023-03-01T00:00:50;20.70;;;14.07;;
7412;SDS011;3748;48.136;11.538;2023-03-01T00:03:18;23.10;;;14.70;;
7412;SDS011;3748;48.136;11.538;2023-03-01T00:05:45;18.30;;;13.73;;
7412;SDS011;3748;48.136;11.538;2023-03-01T00:08:12;24.77;;;13.13;;
7412;SDS011;3748;48.136;11.538;2023-03-01T00:10:40;21.70;;;13.87;;
7412;SDS011;3748;48.136;11.538;2023-03-01T00:13:07;25.13;;;14.97;;
7412;SDS011;3748;48.136;11.538;2023-03-01T00:15:37;20.50;;;13.77;;
7412;SDS011;3748;48.136;11.538;2023-03-01T00:18:04;23.37;;;12.93;;
7412;SDS011;3748;48.136;11.538;2023-03-01T00:20:32;24.07;;;13.27;;
7412;SDS011;3748;48.136;11.538;2023-03-01T00:23:00;38.13;;;14.10;;
7412;SDS011;3748;48.136;11.538;2023-03-01T00:25:27;24.27;;;12.80;;
7412;SDS011;3748;48.136;11.538;2023-03-01T00:27:54;23.73;;;14.83;;
7412;SDS011;3748;48.136;11.538;2023-03-01T00:30:21;22.67;;;14.27;;
7412;SDS011;3748;48.136;11.538;2023-03-01T00:32:48;20.90;;;14.33;;
7412;SDS011;3748;48.136;11.538;2023-03-01T00:35:15;19.87;;;13.47;;
7412;SDS011;3748;48.136;11.538;2023-03-01T00:37:43;24.23;;;12.90;;
7412;SDS011;3748;48.136;11.538;2023-03-01T00:40:11;25.23;;;13.57;;
7412;SDS011;3748;48.136;11.538;2023-03-01T00:42:39;22.97;;;15.67;;
7412;SDS011;3748;48.136;11.538;2023-03-01T00:45:06;19.70;;;13.30;;
7412;SDS011;3748;48.136;11.538;2023-03-01T00:47:34;24.30;;;14.20;;
7412;SDS011;3748;48.136;11.538;2023-03-01T00:50:01;25.93;;;14.40;;
7412;SDS011;3748;48.136;11.538;2023-03-01T00:52:28;20.10;;;13.43;;
7412;SDS011;3748;48.136;11.538;2023-03-01T00:54:56;23.10;;;14.10;;
7412;SDS011;3748;48.136;11.538;2023-03-01T00:57:23;23.63;;;14.57;;
7412;SDS011;3748;48.136;11.538;2023-03-01T00:59:50;21.93;;;13.70;;
7412;SDS011;3748;48.136;11.538;2023-03-01T01:02:18;26.77;;;14.07;;
7412;SDS011;3748;48.136;11.538;2023-03-01T01:04:45;23.00;;;14.00;;
7412;SDS011;3748;48.136;11.538;2023-03-01T01:07:12;26.43;;;14.20;;
7412;SDS011;3748;48.136;11.538;2023-03-01T01:09:40;23.80;;;14.87;;
7412;SDS011;3748;48.136;11.538;2023-03-01T01:12:08;20.67;;;12.67;;
7412;SDS011;3748;48.136;11.538;2023-03-01T01:14:35;20.40;;;13.10;;
7412;SDS011;3748;48.136;11.538;2023-03-01T01:17:03;20.17;;;14.70;;
7412;SDS011;3748;48.136;11.538;2023-03-01T01:19:30;21.73;;;14.63;;
7412;SDS011;3748;48.136;11.538;2023-03-01T01:21:57;25.33;;;15.33;;
7412;SDS011;3748;48.136;11.538;2023-03-01T01:24:25;17.67;;;12.93;;
7412;SDS011;3748;48.136;11.538;2023-03-01T01:26:52;20.67;;;13.70;;
7412;SDS011;3748;48.136;11.538;2023-03-01T01:29:20;24.77;;;14.20;;
7412;SDS011;3748;48.136;11.538;2023-03-01T01:31:47;25.20;;;14.13;;
7412;SDS011;3748;48.136;11.538;2023-03-01T01:34:15;19.70;;;12.43;;
7412;SDS011;3748;48.136;11.538;2023-03-01T01:36:42;24.17;;;14.93;;
7412;SDS011;3748;48.136;11.538;2023-03-01T01:39:10;28.93;;;15.03;;
7412;SDS011;3748;48.136;11.538;2023-03-01T01:41:38;23.10;;;14.30;;
7412;SDS011;3748;48.136;11.538;2023-03-01T01:44:10;22.03;;;13.90;;
7412;SDS011;3748;48.136;11.538;2023-03-01T01:46:39;25.57;;;14.67;;
7412;SDS011;3748;48.136;11.538;2023-03-01T01:49:10;24.70;;;14.03;;
7412;SDS011;3748;48.136;11.538;2023-03-01T01:51:42;24.23;;;14.37;;
7412;SDS011;3748;48.136;11.538;2023-03-01T01:54:14;27.07;;;14.73;;
7412;SDS011;3748;48.136;11.538;2023-03-01T01:56:42;24.73;;;14.03;;
7412;SDS011;3748;48.136;11.538;2023-03-01T01:59:11;20.63;;;13.93;;
7412;SDS011;3748;48.136;11.538;2023-03-01T02:01:39;21.43;;;12.97;;
7412;SDS011;3748;48.136;11.538;2023-03-01T02:04:07;24.60;;;13.07;;
7412;SDS011;3748;48.136;11.538;2023-03-01T02:06:35;20.87;;;12.20;;
7412;SDS011;3748;48.136;11.538;2023-03-01T02:09:05;22.50;;;14.50;;
7412;SDS011;3748;48.136;11.538;2023-03-01T02:11:33;18.00;;;12.90;;
7412;SDS011;3748;48.136;11.538;2023-03-01T02:14:02;22.80;;;14.67;;
7412;SDS011;3748;48.136;11.538;2023-03-01T02:16:29;24.80;;;13.10;;
7412;SDS011;3748;48.136;11.538;2023-03-01T02:18:58;22.27;;;13.00;;
7412;SDS011;3748;48.136;11.538;2023-03-01T02:21:30;24.00;;;14.50;;
7412;SDS011;3748;48.136;11.538;2023-03-01T02:24:01;20.70;;;13.70;;
7412;SDS011;3748;48.136;11.538;2023-03-01T02:26:33;20.73;;;14.10;;
7412;SDS011;3748;48.136;11.538;2023-03-01T02:29:03;22.80;;;13.77;;
7412;SDS011;3748;48.136;11.538;2023-03-01T02:31:31;23.80;;;14.00;;
7412;SDS011;3748;48.136;11.538;2023-03-01T02:34:07;23.63;;;13.70;;
7412;SDS011;3748;48.136;11.538;2023-03-01T02:36:35;20.90;;;14.17;;
7412;SDS011;3748;48.136;11.538;2023-03-01T02:39:04;20.93;;;13.03;;
7412;SDS011;3748;48.136;11.538;2023-03-01T02:41:34;24.80;;;13.70;;
7412;SDS011;3748;48.136;11.538;2023-03-01T02:44:01;19.20;;;13.70;;
7412;SDS011;3748;48.136;11.538;2023-03-01T02:46:30;29.80;;;14.37;;
7412;SDS011;3748;48.136;11.538;2023-03-01T02:48:58;22.67;;;14.00;;
7412;SDS011;3748;48.136;11.538;2023-03-01T02:51:40;21.80;;;13.40;;
7412;SDS011;3748;48.136;11.538;2023-03-01T02:54:12;19.50;;;13.17;;
7412;SDS011;3748;48.136;11.538;2023-03-01T02:56:40;20.57;;;12.20;;
7412;SDS011;3748;48.136;11.538;2023-03-01T02:59:07;26.13;;;15.33;;
7412;SDS011;3748;48.136;11.538;2023-03-01T03:01:36;19.10;;;12.83;;
7412;SDS011;3748;48.136;11.538;2023-03-01T03:04:04;20.83;;;12.63;;
7412;SDS011;3748;48.136;11.538;2023-03-01T03:06:31;18.77;;;12.53;;
7412;SDS011;3748;48.136;11.538;2023-03-01T03:08:58;20.10;;;11.93;;
7412;SDS011;3748;48.136;11.538;2023-03-01T03:11:25;23.00;;;16.40;;
7412;SDS011;3748;48.136;11.538;2023-03-01T03:13:52;23.03;;;15.47;;
7412;SDS011;3748;48.136;11.538;2023-03-01T03:16:20;22.53;;;13.70;;
7412;SDS011;3748;48.136;11.538;2023-03-01T03:18:49;22.07;;;12.83;;
7412;SDS011;3748;48.136;11.538;2023-03-01T03:21:16;23.13;;;14.30;;
7412;SDS011;3748;48.136;11.538;2023-03-01T03:23:43;24.03;;;13.67;;
7412;SDS011;3748;48.136;11.538;2023-03-01T03:26:10;23.07;;;14.97;;
7412;SDS011;3748;48.136;11.538;2023-03-01T03:28:40;22.87;;;13.70;;
7412;SDS011;3748;48.136;11.538;2023-03-01T03:31:07;24.00;;;14.87;;
7412;SDS011;3748;48.136;11.538;2023-03-01T03:33:34;22.70;;;15.73;;
7412;SDS011;3748;48.136;11.538;2023-03-01T03:36:03;23.50;;;13.60;;
7412;SDS011;3748;48.136;11.538;2023-03-01T03:38:30;22.23;;;15.60;;
7412;SDS011;3748;48.136;11.538;2023-03-01T03:41:02;23.37;;;14.63;;
7412;SDS011;3748;48.136;11.538;2023-03-01T03:43:30;25.33;;;15.87;;
7412;SDS011;3748;48.136;11.538;2023-03-01T03:45:57;20.87;;;14.47;;
7412;SDS011;3748;48.136;11.538;2023-03-01T03:48:25;23.20;;;14.40;;
7412;SDS011;3748;48.136;11.538;2023-03-01T03:50:53;24.00;;;14.67;;
7412;SDS011;3748;48.136;11.538;2023-03-01T03:53:22;23.60;;;15.50;;
7412;SDS011;3748;48.136;11.538;2023-03-01T03:55:50;18.17;;;13.53;;
7412;SDS011;3748;48.136;11.538;2023-03-01T03:58:18;22.93;;;15.73;;
7412;SDS011;3748;48.136;11.538;2023-03-01T04:00:46;21.97;;;14.00;;
7412;SDS011;3748;48.136;11.538;2023-03-01T04:03:14;22.47;;;14.20;;
7412;SDS011;3748;48.136;11.538;2023-03-01T04:05:43;18.97;;;13.93;;
7412;SDS011;3748;48.136;11.538;2023-03-01T04:08:11;24.10;;;13.80;;
7412;SDS011;3748;48.136;11.538;2023-03-01T04:10:40;18.80;;;13.87;;
7412;SDS011;3748;48.136;11.538;2023-03-01T04:13:11;23.57;;;13.90;;
7412;SDS011;3748;48.136;11.538;2023-03-01T04:15:39;26.50;;;15.27;;
7412;SDS011;3748;48.136;11.538;2023-03-01T04:18:08;20.60;;;14.60;;
7412;SDS011;3748;48.136;11.538;2023-03-01T04:20:38;21.87;;;16.03;;
7412;SDS011;3748;48.136;11.538;2023-03-01T04:23:05;25.33;;;14.73;;
7412;SDS011;3748;48.136;11.538;2023-03-01T04:25:44;21.80;;;14.40;;
7412;SDS011;3748;48.136;11.538;2023-03-01T04:28:14;26.93;;;15.77;;
7412;SDS011;3748;48.136;11.538;2023-03-01T04:30:42;22.97;;;13.07;;
7412;SDS011;3748;48.136;11.538;2023-03-01T04:33:09;21.37;;;14.50;;
7412;SDS011;3748;48.136;11.538;2023-03-01T04:35:37;26.30;;;15.63;;
7412;SDS011;3748;48.136;11.538;2023-03-01T04:38:05;28.30;;;16.53;;
7412;SDS011;3748;48.136;11.538;2023-03-01T04:40:32;23.00;;;14.77;;
7412;SDS011;3748;48.136;11.538;2023-03-01T04:43:00;21.30;;;13.70;;
7412;SDS011;3748;48.136;11.538;2023-03-01T04:45:27;24.10;;;14.30;;
7412;SDS011;3748;48.136;11.538;2023-03-01T04:47:54;26.50;;;14.23;;
7412;SDS011;3748;48.136;11.538;2023-03-01T04:50:23;23.57;;;14.80;;
7412;SDS011;3748;48.136;11.538;2023-03-01T04:52:50;25.70;;;14.87;;
7412;SDS011;3748;48.136;11.538;2023-03-01T04:55:18;20.73;;;14.00;;
7412;SDS011;3748;48.136;11.538;2023-03-01T04:57:45;21.30;;;13.33;;
7412;SDS011;3748;48.136;11.538;2023-03-01T05:00:14;27.93;;;16.27;;
7412;SDS011;3748;48.136;11.538;2023-03-01T05:02:48;25.37;;;14.50;;
7412;SDS011;3748;48.136;11.538;2023-03-01T05:05:19;29.33;;;14.27;;
7412;SDS011;3748;48.136;11.538;2023-03-01T05:07:54;26.67;;;14.37;;
7412;SDS011;3748;48.136;11.538;2023-03-01T05:10:22;19.70;;;15.17;;
7412;SDS011;3748;48.136;11.538;2023-03-01T05:12:53;24.17;;;15.10;;
7412;SDS011;3748;48.136;11.538;2023-03-01T05:15:23;22.67;;;13.33;;
7412;SDS011;3748;48.136;11.538;2023-03-01T05:23:40;23.80;;;15.20;;
7412;SDS011;3748;48.136;11.538;2023-03-01T05:28:42;24.90;;;14.70;;
7412;SDS011;3748;48.136;11.538;2023-03-01T05:31:12;29.17;;;14.80;;
7412;SDS011;3748;48.136;11.538;2023-03-01T05:34:15;17.83;;;13.33;;
7412;SDS011;3748;48.136;11.538;2023-03-01T05:36:58;22.97;;;13.93;;
7412;SDS011;3748;48.136;11.538;2023-03-01T05:39:29;23.40;;;12.70;;
7412;SDS011;3748;48.136;11.538;2023-03-01T05:41:57;26.70;;;15.00;;
7412;SDS011;3748;48.136;11.538;2023-03-01T05:44:26;26.97;;;15.90;;
7412;SDS011;3748;48.136;11.538;2023-03-01T05:46:55;27.30;;;15.10;;
7412;SDS011;3748;48.136;11.538;2023-03-01T05:49:22;25.83;;;15.63;;
7412;SDS011;3748;48.136;11.538;2023-03-01T05:51:50;21.17;;;16.07;;
7412;SDS011;3748;48.136;11.538;2023-03-01T05:54:18;22.83;;;14.40;;
7412;SDS011;3748;48.136;11.538;2023-03-01T05:56:46;23.53;;;14.97;;
7412;SDS011;3748;48.136;11.538;2023-03-01T05:59:13;31.60;;;16.30;;
7412;SDS011;3748;48.136;11.538;2023-03-01T06:01:41;24.03;;;14.40;;
7412;SDS011;3748;48.136;11.538;2023-03-01T06:04:10;26.33;;;16.37;;
7412;SDS011;3748;48.136;11.538;2023-03-01T06:06:36;19.63;;;12.30;;
7412;SDS011;3748;48.136;11.538;2023-03-01T06:09:10;24.17;;;16.27;;
7412;SDS011;3748;48.136;11.538;2023-03-01T06:11:37;20.43;;;14.10;;
7412;SDS011;3748;48.136;11.538;2023-03-01T06:14:05;26.70;;;13.27;;
7412;SDS011;3748;48.136;11.538;2023-03-01T06:16:35;25.50;;;14.67;;
7412;SDS011;3748;48.136;11.538;2023-03-01T06:19:07;23.37;;;14.93;;
7412;SDS011;3748;48.136;11.538;2023-03-01T06:21:35;28.60;;;14.70;;
7412;SDS011;3748;48.136;11.538;2023-03-01T06:24:03;28.97;;;14.37;;
7412;SDS011;3748;48.136;11.538;2023-03-01T06:26:32;23.43;;;14.10;;
7412;SDS011;3748;48.136;11.538;2023-03-01T06:29:11;21.53;;;13.37;;
7412;SDS011;3748;48.136;11.538;2023-03-01T06:31:40;26.43;;;14.97;;
7412;SDS011;3748;48.136;11.538;2023-03-01T06:34:07;25.40;;;13.33;;
7412;SDS011;3748;48.136;11.538;2023-03-01T06:36:37;28.73;;;15.40;;
7412;SDS011;3748;48.136;11.538;2023-03-01T06:39:08;20.23;;;14.27;;
7412;SDS011;3748;48.136;11.538;2023-03-01T06:52:44;23.87;;;13.70;;
7412;SDS011;3748;48.136;11.538;2023-03-01T06:55:11;26.80;;;13.73;;
7412;SDS011;3748;48.136;11.538;2023-03-01T06:57:39;27.13;;;15.60;;
7412;SDS011;3748;48.136;11.538;2023-03-01T07:00:07;28.97;;;15.87;;
7412;SDS011;3748;48.136;11.538;2023-03-01T07:02:35;26.73;;;14.90;;
7412;SDS011;3748;48.136;11.538;2023-03-01T07:05:02;25.07;;;14.37;;
7412;SDS011;3748;48.136;11.538;2023-03-01T07:07:29;27.30;;;12.73;;
7412;SDS011;3748;48.136;11.538;2023-03-01T07:10:00;23.37;;;13.53;;
7412;SDS011;3748;48.136;11.538;2023-03-01T07:12:27;23.17;;;14.20;;
7412;SDS011;3748;48.136;11.538;2023-03-01T07:20:19;21.57;;;14.10;;
7412;SDS011;3748;48.136;11.538;2023-03-01T07:22:58;28.63;;;15.27;;
7412;SDS011;3748;48.136;11.538;2023-03-01T07:25:27;31.73;;;15.07;;
7412;SDS011;3748;48.136;11.538;2023-03-01T07:27:55;20.87;;;14.10;;
7412;SDS011;3748;48.136;11.538;2023-03-01T07:30:23;22.93;;;13.43;;
7412;SDS011;3748;48.136;11.538;2023-03-01T07:32:52;21.63;;;12.63;;
7412;SDS011;3748;48.136;11.538;2023-03-01T07:35:19;25.53;;;15.43;;
7412;SDS011;3748;48.136;11.538;2023-03-01T07:37:46;22.33;;;13.27;;
7412;SDS011;3748;48.136;11.538;2023-03-01T07:40:13;24.67;;;14.40;;
7412;SDS011;3748;48.136;11.538;2023-03-01T07:42:43;27.57;;;15.30;;
7412;SDS011;3748;48.136;11.538;2023-03-01T07:45:11;29.90;;;14.10;;
7412;SDS011;3748;48.136;11.538;2023-03-01T07:47:38;27.47;;;15.97;;
7412;SDS011;3748;48.136;11.538;2023-03-01T07:50:06;25.23;;;14.37;;
7412;SDS011;3748;48.136;11.538;2023-03-01T07:52:34;26.10;;;14.60;;
7412;SDS011;3748;48.136;11.538;2023-03-01T07:55:01;31.50;;;16.20;;
7412;SDS011;3748;48.136;11.538;2023-03-01T07:57:28;20.90;;;14.70;;
7412;SDS011;3748;48.136;11.538;2023-03-01T07:59:56;26.03;;;13.73;;
7412;SDS011;3748;48.136;11.538;2023-03-01T08:02:24;20.93;;;13.20;;
7412;SDS011;3748;48.136;11.538;2023-03-01T08:04:51;26.87;;;14.53;;
7412;SDS011;3748;48.136;11.538;2023-03-01T08:07:18;22.80;;;15.53;;
7412;SDS011;3748;48.136;11.538;2023-03-01T08:09:45;29.57;;;15.60;;
7412;SDS011;3748;48.136;11.538;2023-03-01T08:12:12;26.70;;;13.97;;
7412;SDS011;3748;48.136;11.538;2023-03-01T08:14:41;21.33;;;13.67;;
7412;SDS011;3748;48.136;11.538;2023-03-01T08:17:10;29.53;;;15.17;;
7412;SDS011;3748;48.136;11.538;2023-03-01T08:19:39;27.77;;;15.27;;
7412;SDS011;3748;48.136;11.538;2023-03-01T08:22:07;26.97;;;15.40;;
7412;SDS011;3748;48.136;11.538;2023-03-01T08:24:34;27.20;;;14.93;;
7412;SDS011;3748;48.136;11.538;2023-03-01T08:27:01;28.60;;;15.43;;
7412;SDS011;3748;48.136;11.538;2023-03-01T08:29:30;22.00;;;14.43;;
7412;SDS011;3748;48.136;11.538;2023-03-01T08:31:57;20.53;;;13.70;;
7412;SDS011;3748;48.136;11.538;2023-03-01T08:34:27;26.53;;;14.90;;
7412;SDS011;3748;48.136;11.538;2023-03-01T08:36:54;24.20;;;14.17;;
7412;SDS011;3748;48.136;11.538;2023-03-01T08:39:22;20.77;;;13.93;;
7412;SDS011;3748;48.136;11.538;2023-03-01T08:41:50;23.63;;;14.20;;
7412;SDS011;3748;48.136;11.538;2023-03-01T08:44:17;25.77;;;14.17;;
7412;SDS011;3748;48.136;11.538;2023-03-01T08:46:46;25.87;;;13.37;;
7412;SDS011;3748;48.136;11.538;2023-03-01T08:49:15;22.70;;;15.60;;
7412;SDS011;3748;48.136;11.538;2023-03-01T08:51:45;25.87;;;14.40;;
7412;SDS011;3748;48.136;11.538;2023-03-01T08:54:13;27.30;;;15.53;;
7412;SDS011;3748;48.136;11.538;2023-03-01T08:56:41;26.10;;;16.13;;
7412;SDS011;3748;48.136;11.538;2023-03-01T08:59:08;26.10;;;15.07;;
7412;SDS011;3748;48.136;11.538;2023-03-01T09:01:36;25.23;;;14.47;;
7412;SDS011;3748;48.136;11.538;2023-03-01T09:04:03;24.00;;;15.43;;
7412;SDS011;3748;48.136;11.538;2023-03-01T09:06:30;27.30;;;16.00;;
7412;SDS011;3748;48.136;11.538;2023-03-01T09:09:00;29.67;;;16.40;;
7412;SDS011;3748;48.136;11.538;2023-03-01T09:11:27;27.93;;;14.97;;
7412;SDS011;3748;48.136;11.538;2023-03-01T09:13:55;23.60;;;16.50;;
7412;SDS011;3748;48.136;11.538;2023-03-01T09:16:23;26.43;;;17.20;;
7412;SDS011;3748;48.136;11.538;2023-03-01T09:18:51;25.77;;;14.83;;
7412;SDS011;3748;48.136;11.538;2023-03-01T09:21:19;26.17;;;16.20;;
7412;SDS011;3748;48.136;11.538;2023-03-01T09:23:48;28.03;;;15.43;;
7412;SDS011;3748;48.136;11.538;2023-03-01T09:26:17;25.17;;;16.97;;
7412;SDS011;3748;48.136;11.538;2023-03-01T09:28:46;26.70;;;14.83;;
7412;SDS011;3748;48.136;11.538;2023-03-01T09:31:14;30.30;;;16.83;;
7412;SDS011;3748;48.136;11.538;2023-03-01T09:33:45;25.83;;;15.87;;
7412;SDS011;3748;48.136;11.538;2023-03-01T09:36:14;25.53;;;14.27;;
7412;SDS011;3748;48.136;11.538;2023-03-01T09:38:42;27.73;;;15.10;;
7412;SDS011;3748;48.136;11.538;2023-03-01T09:41:10;30.07;;;17.23;;
7412;SDS011;3748;48.136;11.538;2023-03-01T09:43:49;28.23;;;16.30;;
7412;SDS011;3748;48.136;11.538;2023-03-01T09:46:19;23.47;;;14.83;;
7412;SDS011;3748;48.136;11.538;2023-03-01T09:48:48;24.20;;;15.07;;
7412;SDS011;3748;48.136;11.538;2023-03-01T09:51:19;24.97;;;15.20;;
7412;SDS011;3748;48.136;11.538;2023-03-01T09:53:52;30.03;;;16.00;;
7412;SDS011;3748;48.136;11.538;2023-03-01T09:56:22;26.63;;;15.00;;
7412;SDS011;3748;48.136;11.538;2023-03-01T09:58:58;22.80;;;14.50;;
7412;SDS011;3748;48.136;11.538;2023-03-01T10:01:32;25.80;;;15.63;;
7412;SDS011;3748;48.136;11.538;2023-03-01T10:04:21;29.27;;;16.00;;
7412;SDS011;3748;48.136;11.538;2023-03-01T10:06:57;34.80;;;16.13;;
7412;SDS011;3748;48.136;11.538;2023-03-01T10:09:32;31.93;;;16.10;;
7412;SDS011;3748;48.136;11.538;2023-03-01T10:12:01;24.77;;;15.97;;
7412;SDS011;3748;48.136;11.538;2023-03-01T10:14:32;23.83;;;15.00;;
7412;SDS011;3748;48.136;11.538;2023-03-01T10:17:04;29.63;;;15.97;;
7412;SDS011;3748;48.136;11.538;2023-03-01T10:19:39;27.93;;;16.20;;
7412;SDS011;3748;48.136;11.538;2023-03-01T10:22:11;24.50;;;15.00;;
7412;SDS011;3748;48.136;11.538;2023-03-01T10:24:42;28.40;;;14.87;;
7412;SDS011;3748;48.136;11.538;2023-03-01T10:27:12;24.33;;;14.97;;
7412;SDS011;3748;48.136;11.538;2023-03-01T10:29:48;24.17;;;15.87;;
7412;SDS011;3748;48.136;11.538;2023-03-01T10:32:19;27.70;;;15.33;;
7412;SDS011;3748;48.136;11.538;2023-03-01T10:34:47;33.17;;;15.57;;
7412;SDS011;3748;48.136;11.538;2023-03-01T10:37:14;25.73;;;15.30;;
7412;SDS011;3748;48.136;11.538;2023-03-01T10:40:00;24.97;;;15.60;;
7412;SDS011;3748;48.136;11.538;2023-03-01T10:42:31;28.03;;;15.87;;
7412;SDS011;3748;48.136;11.538;2023-03-01T10:45:15;26.13;;;16.20;;
7412;SDS011;3748;48.136;11.538;2023-03-01T10:48:04;21.90;;;15.30;;
7412;SDS011;3748;48.136;11.538;2023-03-01T10:50:36;26.87;;;17.50;;
7412;SDS011;3748;48.136;11.538;2023-03-01T10:53:05;22.10;;;15.20;;
7412;SDS011;3748;48.136;11.538;2023-03-01T10:56:02;24.57;;;16.97;;
7412;SDS011;3748;48.136;11.538;2023-03-01T10:58:32;26.70;;;14.43;;
7412;SDS011;3748;48.136;11.538;2023-03-01T11:01:02;28.10;;;18.10;;
7412;SDS011;3748;48.136;11.538;2023-03-01T11:03:31;25.90;;;16.43;;
7412;SDS011;3748;48.136;11.538;2023-03-01T11:06:02;24.87;;;16.53;;
7412;SDS011;3748;48.136;11.538;2023-03-01T11:08:32;25.73;;;16.53;;
7412;SDS011;3748;48.136;11.538;2023-03-01T11:13:51;22.93;;;16.40;;
7412;SDS011;3748;48.136;11.538;2023-03-01T11:16:24;25.53;;;16.13;;
7412;SDS011;3748;48.136;11.538;2023-03-01T11:18:57;24.90;;;16.30;;
7412;SDS011;3748;48.136;11.538;2023-03-01T11:21:25;21.67;;;15.73;;
7412;SDS011;3748;48.136;11.538;2023-03-01T11:23:57;24.47;;;18.13;;
7412;SDS011;3748;48.136;11.538;2023-03-01T11:26:26;22.53;;;17.00;;
7412;SDS011;3748;48.136;11.538;2023-03-01T11:28:56;25.43;;;18.43;;
7412;SDS011;3748;48.136;11.538;2023-03-01T11:31:30;21.93;;;17.60;;
7412;SDS011;3748;48.136;11.538;2023-03-01T11:33:59;28.20;;;18.50;;
7412;SDS011;3748;48.136;11.538;2023-03-01T11:36:32;23.00;;;18.10;;
7412;SDS011;3748;48.136;11.538;2023-03-01T11:39:05;24.53;;;18.70;;
7412;SDS011;3748;48.136;11.538;2023-03-01T11:41:44;25.00;;;17.50;;
7412;SDS011;3748;48.136;11.538;2023-03-01T11:44:18;23.13;;;16.80;;
7412;SDS011;3748;48.136;11.538;2023-03-01T11:46:54;26.20;;;18.90;;
7412;SDS011;3748;48.136;11.538;2023-03-01T11:52:42;23.67;;;17.83;;
7412;SDS011;3748;48.136;11.538;2023-03-01T11:55:20;23.90;;;19.00;;
7412;SDS011;3748;48.136;11.538;2023-03-01T11:58:07;24.93;;;18.00;;
7412;SDS011;3748;48.136;11.538;2023-03-01T12:03:43;28.80;;;18.43;;
7412;SDS011;3748;48.136;11.538;2023-03-01T12:06:27;21.07;;;17.80;;
7412;SDS011;3748;48.136;11.538;2023-03-01T12:09:05;24.27;;;19.43;;
7412;SDS011;3748;48.136;11.538;2023-03-01T12:11:47;23.30;;;17.73;;
7412;SDS011;3748;48.136;11.538;2023-03-01T12:14:41;24.70;;;18.93;;
7412;SDS011;3748;48.136;11.538;2023-03-01T12:17:21;23.07;;;18.37;;
7412;SDS011;3748;48.136;11.538;2023-03-01T12:20:14;25.93;;;17.97;;
7412;SDS011;3748;48.136;11.538;2023-03-01T12:22:52;20.57;;;17.13;;
7412;SDS011;3748;48.136;11.538;2023-03-01T12:25:52;21.53;;;17.40;;
7412;SDS011;3748;48.136;11.538;2023-03-01T12:28:36;22.07;;;16.60;;
7412;SDS011;3748;48.136;11.538;2023-03-01T12:31:25;24.23;;;17.83;;
7412;SDS011;3748;48.136;11.538;2023-03-01T12:34:13;22.90;;;17.97;;
7412;SDS011;3748;48.136;11.538;2023-03-01T12:36:54;23.50;;;18.90;;
7412;SDS011;3748;48.136;11.538;2023-03-01T12:39:38;23.43;;;17.20;;
7412;SDS011;3748;48.136;11.538;2023-03-01T12:42:16;20.20;;;18.13;;
7412;SDS011;3748;48.136;11.538;2023-03-01T12:44:55;23.27;;;19.73;;
7412;SDS011;3748;48.136;11.538;2023-03-01T12:50:34;29.90;;;21.57;;
7412;SDS011;3748;48.136;11.538;2023-03-01T12:53:08;24.70;;;19.37;;
7412;SDS011;3748;48.136;11.538;2023-03-01T12:55:47;26.50;;;20.27;;
7412;SDS011;3748;48.136;11.538;2023-03-01T12:58:21;28.40;;;20.40;;
7412;SDS011;3748;48.136;11.538;2023-03-01T13:00:59;27.90;;;20.57;;
7412;SDS011;3748;48.136;11.538;2023-03-01T13:03:33;26.47;;;19.60;;
7412;SDS011;3748;48.136;11.538;2023-03-01T13:06:10;23.10;;;19.10;;
7412;SDS011;3748;48.136;11.538;2023-03-01T13:08:47;26.07;;;20.00;;
7412;SDS011;3748;48.136;11.538;2023-03-01T13:11:21;23.53;;;19.27;;
7412;SDS011;3748;48.136;11.538;2023-03-01T13:13:48;28.13;;;18.60;;
7412;SDS011;3748;48.136;11.538;2023-03-01T13:16:20;26.37;;;19.10;;
7412;SDS011;3748;48.136;11.538;2023-03-01T13:19:09;27.50;;;20.37;;
7412;SDS011;3748;48.136;11.538;2023-03-01T13:21:40;27.67;;;19.10;;
7412;SDS011;3748;48.136;11.538;2023-03-01T13:27:10;28.43;;;21.93;;
7412;SDS011;3748;48.136;11.538;2023-03-01T13:29:50;33.10;;;22.50;;
7412;SDS011;3748;48.136;11.538;2023-03-01T13:32:21;23.53;;;19.77;;
7412;SDS011;3748;48.136;11.538;2023-03-01T13:34:56;24.53;;;19.60;;
7412;SDS011;3748;48.136;11.538;2023-03-01T13:37:25;23.50;;;18.83;;
7412;SDS011;3748;48.136;11.538;2023-03-01T13:39:56;25.17;;;21.30;;
7412;SDS011;3748;48.136;11.538;2023-03-01T13:42:31;24.50;;;19.90;;
7412;SDS011;3748;48.136;11.538;2023-03-01T13:45:16;25.50;;;20.33;;
7412;SDS011;3748;48.136;11.538;2023-03-01T13:47:52;29.60;;;19.20;;
7412;SDS011;3748;48.136;11.538;2023-03-01T13:50:23;25.70;;;19.20;;
7412;SDS011;3748;48.136;11.538;2023-03-01T13:52:53;26.00;;;19.83;;
7412;SDS011;3748;48.136;11.538;2023-03-01T13:55:26;22.63;;;19.10;;
7412;SDS011;3748;48.136;11.538;2023-03-01T13:57:59;23.37;;;18.93;;
7412;SDS011;3748;48.136;11.538;2023-03-01T14:00:29;25.00;;;19.53;;
7412;SDS011;3748;48.136;11.538;2023-03-01T14:03:02;27.27;;;20.10;;
7412;SDS011;3748;48.136;11.538;2023-03-01T14:05:31;24.13;;;19.63;;
7412;SDS011;3748;48.136;11.538;2023-03-01T14:07:58;23.63;;;20.37;;
7412;SDS011;3748;48.136;11.538;2023-03-01T14:10:29;28.43;;;22.30;;
7412;SDS011;3748;48.136;11.538;2023-03-01T14:13:06;26.63;;;19.27;;
7412;SDS011;3748;48.136;11.538;2023-03-01T14:15:46;25.97;;;20.13;;
7412;SDS011;3748;48.136;11.538;2023-03-01T14:18:32;27.50;;;20.20;;
7412;SDS011;3748;48.136;11.538;2023-03-01T14:21:07;25.60;;;20.60;;
7412;SDS011;3748;48.136;11.538;2023-03-01T14:23:34;22.87;;;19.50;;
7412;SDS011;3748;48.136;11.538;2023-03-01T14:26:05;24.53;;;19.73;;
7412;SDS011;3748;48.136;11.538;2023-03-01T14:28:37;27.47;;;20.53;;
7412;SDS011;3748;48.136;11.538;2023-03-01T14:33:58;24.60;;;19.37;;
7412;SDS011;3748;48.136;11.538;2023-03-01T14:36:26;26.23;;;18.43;;
7412;SDS011;3748;48.136;11.538;2023-03-01T14:38:53;26.60;;;19.87;;
7412;SDS011;3748;48.136;11.538;2023-03-01T14:41:22;26.97;;;18.50;;
7412;SDS011;3748;48.136;11.538;2023-03-01T14:43:52;26.43;;;19.00;;
7412;SDS011;3748;48.136;11.538;2023-03-01T14:46:24;34.57;;;20.07;;
7412;SDS011;3748;48.136;11.538;2023-03-01T14:48:53;27.53;;;17.63;;
7412;SDS011;3748;48.136;11.538;2023-03-01T14:51:23;24.60;;;18.70;;
7412;SDS011;3748;48.136;11.538;2023-03-01T14:53:50;23.90;;;18.20;;
7412;SDS011;3748;48.136;11.538;2023-03-01T14:56:17;27.67;;;19.20;;
7412;SDS011;3748;48.136;11.538;2023-03-01T14:58:47;28.67;;;17.53;;
7412;SDS011;3748;48.136;11.538;2023-03-01T15:01:18;24.67;;;17.90;;
7412;SDS011;3748;48.136;11.538;2023-03-01T15:03:46;22.50;;;17.77;;
7412;SDS011;3748;48.136;11.538;2023-03-01T15:06:15;24.90;;;17.33;;
7412;SDS011;3748;48.136;11.538;2023-03-01T15:08:45;24.87;;;17.07;;
7412;SDS011;3748;48.136;11.538;2023-03-01T15:11:17;26.23;;;16.80;;
7412;SDS011;3748;48.136;11.538;2023-03-01T15:13:50;21.50;;;16.30;;
7412;SDS011;3748;48.136;11.538;2023-03-01T15:16:18;22.77;;;14.57;;
7412;SDS011;3748;48.136;11.538;2023-03-01T15:18:48;23.93;;;15.97;;
7412;SDS011;3748;48.136;11.538;2023-03-01T15:21:17;22.47;;;15.60;;
7412;SDS011;3748;48.136;11.538;2023-03-01T15:23:48;26.20;;;16.30;;
7412;SDS011;3748;48.136;11.538;2023-03-01T15:26:21;28.43;;;15.57;;
7412;SDS011;3748;48.136;11.538;2023-03-01T15:28:52;22.60;;;15.20;;
7412;SDS011;3748;48.136;11.538;2023-03-01T15:31:23;20.37;;;14.50;;
7412;SDS011;3748;48.136;11.538;2023-03-01T15:33:51;21.80;;;14.77;;
7412;SDS011;3748;48.136;11.538;2023-03-01T15:36:32;33.20;;;16.97;;